Time;durP1;ratioP1;P1;durP2;ratioP2;P2;SDS_P1;SDS_P2;PMS_P1;PMS_P2;Temp;Humidity;BMP_temperature;BMP_pressure;BME280_temperature;BME280_humidity;BME280_pressure;Samples;Min_cycle;Max_cycle;Signal;HPM_P1;HPM_P2
2022/03/03 00:02:04;;;;;;;52.58;14.32;;;;;;;7.27;100.00;101267.47;5083513;28;20044;-88
2022/03/03 00:04:31;;;;;;;55.03;17.42;;;;;;;7.24;100.00;101233.66;5070910;28;20447;-88
2022/03/03 00:06:58;;;;;;;63.10;20.40;;;;;;;7.70;100.00;101234.66;5076060;28;20050;-88
2022/03/03 00:09:25;;;;;;;51.63;16.10;;;;;;;7.82;100.00;101244.00;5098249;28;20079;-88
2022/03/03 00:11:52;;;;;;;49.45;18.65;;;;;;;7.37;100.00;101250.84;5091875;28;20058;-88
2022/03/03 00:14:19;;;;;;;56.55;21.23;;;;;;;7.17;100.00;101260.69;5090912;28;20052;-89
2022/03/03 00:16:46;;;;;;;48.95;18.92;;;;;;;7.49;100.00;101241.97;5091170;28;20067;-88
2022/03/03 00:19:12;;;;;;;51.40;16.77;;;;;;;7.52;100.00;101249.72;5090697;28;20055;-89
2022/03/03 00:21:39;;;;;;;54.70;19.67;;;;;;;7.54;100.00;101210.59;5089182;28;20135;-88
2022/03/03 00:24:06;;;;;;;55.40;20.50;;;;;;;7.45;100.00;101206.41;5090889;28;20055;-88
2022/03/03 00:26:33;;;;;;;51.30;20.45;;;;;;;7.30;100.00;101194.50;5091969;28;20048;-88
2022/03/03 00:28:59;;;;;;;50.45;20.60;;;;;;;7.40;100.00;101235.16;5091227;28;20131;-88
2022/03/03 00:31:26;;;;;;;49.70;20.95;;;;;;;7.63;100.00;101204.38;5090932;28;20470;-87
2022/03/03 00:33:53;;;;;;;53.75;21.60;;;;;;;7.47;100.00;101180.31;5090254;28;20500;-88
2022/03/03 00:36:20;;;;;;;54.42;21.45;;;;;;;7.34;100.00;101171.88;5090523;28;20052;-88
2022/03/03 00:38:48;;;;;;;53.83;23.42;;;;;;;7.20;100.00;101201.59;5091863;28;20058;-88
2022/03/03 00:41:14;;;;;;;71.80;25.42;;;;;;;7.35;100.00;101238.72;5089772;28;20048;-87
2022/03/03 00:43:41;;;;;;;57.47;26.58;;;;;;;7.28;100.00;101232.75;5107612;28;20070;-87
2022/03/03 00:46:08;;;;;;;56.05;24.17;;;;;;;7.12;100.00;101181.75;5090694;28;20392;-87
2022/03/03 00:48:35;;;;;;;51.08;23.67;;;;;;;7.22;100.00;101205.06;5090709;28;20051;-87
2022/03/03 00:51:06;;;;;;;55.10;24.70;;;;;;;7.47;100.00;101207.25;5090352;28;20050;-87
2022/03/03 00:53:37;;;;;;;67.28;25.45;;;;;;;7.39;100.00;101217.78;5090885;28;20393;-87
2022/03/03 00:56:05;;;;;;;65.50;24.80;;;;;;;7.79;100.00;101193.66;5091041;28;20495;-87
2022/03/03 00:58:31;;;;;;;60.90;24.30;;;;;;;7.81;100.00;101175.38;5090293;28;20877;-87
2022/03/03 01:00:58;;;;;;;66.28;25.50;;;;;;;7.55;100.00;101188.88;5093867;28;20503;-88
2022/03/03 01:03:26;;;;;;;60.60;25.08;;;;;;;7.63;100.00;101186.13;5073068;28;20049;-87
2022/03/03 01:05:53;;;;;;;63.70;24.98;;;;;;;7.09;100.00;101094.16;5069889;28;20052;-87
2022/03/03 01:08:20;;;;;;;55.08;26.08;;;;;;;7.38;100.00;101129.25;5087345;28;20086;-87
2022/03/03 01:10:47;;;;;;;64.97;25.00;;;;;;;7.56;100.00;101141.94;5089711;28;20389;-88
2022/03/03 01:13:15;;;;;;;62.60;24.15;;;;;;;7.29;100.00;101106.81;5091539;28;20048;-88
2022/03/03 01:15:43;;;;;;;61.03;25.27;;;;;;;6.89;100.00;101123.13;5091606;28;20040;-87
2022/03/03 01:18:09;;;;;;;63.10;25.45;;;;;;;7.10;100.00;101082.88;5090305;28;20097;-87
2022/03/03 01:20:36;;;;;;;64.78;26.20;;;;;;;7.24;100.00;101100.81;5089523;28;20473;-87
2022/03/03 01:23:03;;;;;;;59.78;25.65;;;;;;;6.99;100.00;101067.44;5094020;28;20048;-88
2022/03/03 01:25:30;;;;;;;56.08;22.73;;;;;;;7.15;100.00;101087.97;5109885;28;20056;-87
2022/03/03 01:27:57;;;;;;;55.47;23.88;;;;;;;7.60;100.00;101132.31;5094778;28;20040;-88
2022/03/03 01:30:24;;;;;;;51.58;23.63;;;;;;;6.95;100.00;101063.16;5109566;28;20051;-88
2022/03/03 01:32:50;;;;;;;58.03;22.58;;;;;;;7.19;100.00;101054.06;5092973;28;20055;-88
2022/03/03 01:35:17;;;;;;;61.50;23.08;;;;;;;7.43;100.00;101096.16;5109850;28;20054;-88
2022/03/03 01:37:44;;;;;;;61.00;23.92;;;;;;;7.35;100.00;101087.63;5110555;28;20052;-88
2022/03/03 01:40:11;;;;;;;50.65;21.92;;;;;;;7.72;100.00;101115.56;5094199;28;20420;-88
2022/03/03 01:42:38;;;;;;;58.03;22.65;;;;;;;7.23;100.00;101075.69;5110108;28;20059;-88
2022/03/03 01:45:05;;;;;;;58.78;24.15;;;;;;;7.51;100.00;101146.38;5110783;28;20424;-88
2022/03/03 01:47:32;;;;;;;58.80;23.48;;;;;;;7.76;100.00;101145.91;5110301;28;20383;-87
2022/03/03 01:49:59;;;;;;;54.35;24.15;;;;;;;7.72;100.00;101154.66;5093287;28;20500;-87
2022/03/03 01:52:26;;;;;;;65.88;24.30;;;;;;;7.55;100.00;101121.13;5092839;28;20490;-88
2022/03/03 01:54:53;;;;;;;60.55;23.90;;;;;;;7.25;100.00;101091.28;5094156;28;20496;-89
2022/03/03 01:57:22;;;;;;;58.10;23.17;;;;;;;7.66;100.00;101115.72;5093173;28;20052;-88
2022/03/03 01:59:49;;;;;;;59.85;24.70;;;;;;;7.64;100.00;101107.06;5088283;28;20053;-88
2022/03/03 02:02:16;;;;;;;56.33;22.50;;;;;;;7.47;100.00;101116.06;5084020;28;20387;-88
2022/03/03 02:04:43;;;;;;;58.28;25.98;;;;;;;7.27;100.00;101069.53;5072785;28;20048;-86
2022/03/03 02:07:10;;;;;;;60.55;24.83;;;;;;;7.62;100.00;101104.47;5080021;28;20140;-88
2022/03/03 02:09:40;;;;;;;52.05;23.13;;;;;;;7.62;100.00;101090.59;5094476;28;20056;-88
2022/03/03 02:12:08;;;;;;;57.45;23.63;;;;;;;7.36;100.00;101087.59;5091861;28;20101;-89
2022/03/03 02:14:45;;;;;;;71.43;26.38;;;;;;;7.96;100.00;101091.59;5093018;28;20068;-88
2022/03/03 02:17:13;;;;;;;58.58;24.98;;;;;;;7.45;100.00;101036.19;5093911;28;20075;-88
2022/03/03 02:19:40;;;;;;;53.58;23.50;;;;;;;7.82;100.00;101071.94;5092441;28;20059;-87
2022/03/03 02:22:08;;;;;;;57.17;24.02;;;;;;;7.68;100.00;101078.28;5092675;28;20097;-88
2022/03/03 02:24:36;;;;;;;64.47;24.75;;;;;;;7.77;100.00;101088.56;5092556;28;20052;-88
2022/03/03 02:27:04;;;;;;;74.85;26.13;;;;;;;7.58;100.00;101072.41;5093507;28;20051;-87
2022/03/03 02:29:32;;;;;;;59.92;25.42;;;;;;;7.60;100.00;101075.84;5093127;28;20485;-87
2022/03/03 02:32:00;;;;;;;56.90;23.48;;;;;;;7.67;100.00;101055.72;5091551;28;20119;-87
2022/03/03 02:34:27;;;;;;;56.22;24.00;;;;;;;7.66;100.00;101064.44;5092807;28;20055;-87
2022/03/03 02:36:54;;;;;;;66.00;25.20;;;;;;;7.40;100.00;101075.34;5093204;28;20048;-87
2022/03/03 02:39:21;;;;;;;65.13;24.45;;;;;;;7.46;100.00;101070.03;5092726;28;20044;-87
2022/03/03 02:41:47;;;;;;;52.47;23.58;;;;;;;7.38;100.00;101015.50;5110346;27;20052;-87
2022/03/03 02:44:14;;;;;;;59.20;22.88;;;;;;;7.36;100.00;101076.31;5092432;28;20043;-87
2022/03/03 02:46:41;;;;;;;58.00;23.45;;;;;;;7.53;100.00;101001.28;5093338;28;20044;-87
2022/03/03 02:49:11;;;;;;;57.85;22.33;;;;;;;7.84;100.00;101039.72;5102562;28;20046;-87
2022/03/03 02:51:37;;;;;;;57.80;23.50;;;;;;;7.55;100.00;101045.56;5091190;28;20044;-87
2022/03/03 02:54:04;;;;;;;54.90;24.15;;;;;;;7.73;100.00;101024.31;5091833;28;20048;-87
2022/03/03 02:56:31;;;;;;;55.72;25.00;;;;;;;7.60;100.00;101049.78;5092163;28;20541;-88
2022/03/03 02:58:58;;;;;;;61.20;24.73;;;;;;;7.51;100.00;100999.63;5093565;28;20044;-88
2022/03/03 03:01:25;;;;;;;60.95;22.67;;;;;;;7.78;100.00;101030.28;5107994;28;20048;-88
2022/03/03 03:03:52;;;;;;;60.63;24.23;;;;;;;7.58;100.00;101064.59;5071139;28;20048;-88
2022/03/03 03:06:19;;;;;;;63.53;24.75;;;;;;;7.86;100.00;101026.66;5071646;28;20045;-88
2022/03/03 03:08:45;;;;;;;56.83;22.13;;;;;;;7.67;100.00;100993.19;5071733;28;20044;-89
2022/03/03 03:11:12;;;;;;;61.92;25.23;;;;;;;7.68;100.00;101047.00;5082668;28;20048;-88
2022/03/03 03:13:39;;;;;;;61.17;23.63;;;;;;;7.82;100.00;101054.53;5108852;28;20051;-88
2022/03/03 03:16:08;;;;;;;67.95;24.73;;;;;;;7.57;100.00;101056.81;5091934;28;20055;-89
2022/03/03 03:18:35;;;;;;;58.25;22.13;;;;;;;7.68;100.00;101048.75;5101553;28;20127;-88
2022/03/03 03:21:02;;;;;;;66.93;23.40;;;;;;;7.66;100.00;100999.28;5101140;28;20529;-88
2022/03/03 03:23:29;;;;;;;53.30;22.02;;;;;;;7.74;100.00;101012.16;5092225;28;20052;-88
2022/03/03 03:25:56;;;;;;;51.30;23.67;;;;;;;7.99;100.00;101033.34;5091881;28;20058;-88
2022/03/03 03:28:24;;;;;;;71.68;25.90;;;;;;;7.65;100.00;101004.50;5092826;28;20040;-88
2022/03/03 03:30:51;;;;;;;47.03;21.40;;;;;;;8.00;100.00;101019.38;5090630;28;20052;-88
2022/03/03 03:33:18;;;;;;;60.47;22.23;;;;;;;8.06;100.00;101016.66;5108298;28;20131;-88
2022/03/03 03:35:45;;;;;;;56.42;23.05;;;;;;;7.35;100.00;100979.09;5107890;28;20654;-87
2022/03/03 03:38:12;;;;;;;64.35;25.10;;;;;;;7.84;100.00;101011.03;5091468;28;20044;-88
2022/03/03 03:40:39;;;;;;;51.78;22.77;;;;;;;7.54;100.00;100940.47;5091703;28;20424;-88
2022/03/03 03:43:06;;;;;;;65.43;26.63;;;;;;;7.27;100.00;100954.06;5090782;28;20394;-88
2022/03/03 03:45:34;;;;;;;69.32;25.05;;;;;;;7.81;100.00;101029.38;5091081;28;20059;-88
2022/03/03 03:48:01;;;;;;;51.15;24.20;;;;;;;7.91;100.00;101012.63;5090773;28;20052;-87
2022/03/03 03:50:28;;;;;;;62.85;23.15;;;;;;;8.17;100.00;101011.19;5091341;28;20040;-88
2022/03/03 03:52:55;;;;;;;62.25;25.50;;;;;;;7.53;100.00;101003.88;5092683;28;20044;-87
2022/03/03 03:55:23;;;;;;;62.05;24.85;;;;;;;7.23;100.00;100967.16;5092167;28;20054;-89
2022/03/03 03:57:49;;;;;;;57.55;23.63;;;;;;;7.72;100.00;100983.53;5092284;28;20864;-88
2022/03/03 04:00:17;;;;;;;67.57;24.85;;;;;;;7.60;100.00;100949.91;5107393;28;20539;-88
2022/03/03 04:02:44;;;;;;;52.95;23.45;;;;;;;7.31;100.00;100961.81;5090727;28;20052;-89
2022/03/03 04:05:13;;;;;;;70.82;27.85;;;;;;;7.42;100.00;100951.16;5091221;28;20105;-89
2022/03/03 04:07:41;;;;;;;65.40;26.13;;;;;;;7.52;100.00;101006.53;5091281;28;20536;-89
2022/03/03 04:10:09;;;;;;;60.60;24.27;;;;;;;7.67;100.00;100971.50;5089596;28;20043;-89
2022/03/03 04:12:36;;;;;;;67.80;24.05;;;;;;;7.99;100.00;100981.19;5090480;28;20079;-89
2022/03/03 04:15:03;;;;;;;61.10;26.00;;;;;;;7.81;100.00;100969.44;5090855;28;20052;-89
2022/03/03 04:17:30;;;;;;;63.53;25.23;;;;;;;7.88;100.00;100989.25;5090582;28;20056;-89
2022/03/03 04:20:04;;;;;;;57.22;21.50;;;;;;;8.15;100.00;100985.13;5090556;28;20606;-89
2022/03/03 04:22:32;;;;;;;60.70;24.10;;;;;;;7.71;100.00;100953.13;5071925;28;20147;-89
2022/03/03 04:24:59;;;;;;;72.90;24.88;;;;;;;7.78;100.00;100996.41;5071089;28;20052;-89
2022/03/03 04:27:27;;;;;;;72.72;23.98;;;;;;;7.63;100.00;100931.56;5070336;28;20107;-89
2022/03/03 04:29:53;;;;;;;63.28;21.85;;;;;;;8.06;100.00;100954.06;5103663;28;20047;-88
2022/03/03 04:32:20;;;;;;;63.25;23.38;;;;;;;8.16;100.00;100950.34;5084874;28;20058;-88
2022/03/03 04:34:47;;;;;;;68.35;22.98;;;;;;;7.68;100.00;100903.66;5090844;28;20048;-88
2022/03/03 04:37:13;;;;;;;68.72;26.92;;;;;;;7.60;100.00;100896.03;5082858;28;20051;-87
2022/03/03 04:39:40;;;;;;;48.28;20.95;;;;;;;7.81;100.00;100904.25;5087313;28;20127;-88
2022/03/03 04:42:07;;;;;;;55.30;24.38;;;;;;;7.68;100.00;100945.38;5090288;28;20048;-88
2022/03/03 04:44:34;;;;;;;61.88;22.35;;;;;;;7.98;100.00;100945.56;5090413;28;21067;-87
2022/03/03 04:47:01;;;;;;;55.92;22.45;;;;;;;8.03;100.00;100932.44;5089722;28;20040;-88
2022/03/03 04:49:28;;;;;;;63.00;24.10;;;;;;;7.70;100.00;100946.22;5092059;28;20063;-88
2022/03/03 04:51:55;;;;;;;59.83;24.88;;;;;;;7.73;100.00;100960.91;5106344;28;20044;-89
2022/03/03 04:54:22;;;;;;;64.53;22.77;;;;;;;7.73;100.00;100932.25;5090913;28;20556;-89
2022/03/03 04:56:51;;;;;;;58.40;25.90;;;;;;;7.97;100.00;100949.94;5093834;28;20054;-89
2022/03/03 04:59:18;;;;;;;63.85;25.73;;;;;;;7.46;100.00;100923.28;5111393;28;20047;-88
2022/03/03 05:01:45;;;;;;;60.72;24.58;;;;;;;7.51;100.00;100922.28;5094417;28;20051;-89
2022/03/03 05:04:12;;;;;;;78.28;27.80;;;;;;;7.55;100.00;100928.31;5093895;28;20139;-88
2022/03/03 05:06:44;;;;;;;71.85;27.48;;;;;;;7.63;100.00;100938.53;5093935;28;20052;-88
2022/03/03 05:09:11;;;;;;;68.40;26.08;;;;;;;7.68;100.00;100932.34;5094023;28;20054;-88
2022/03/03 05:11:39;;;;;;;74.72;28.63;;;;;;;7.37;100.00;100927.81;5092729;28;20051;-87
2022/03/03 05:14:06;;;;;;;59.35;23.60;;;;;;;7.93;100.00;100935.25;5095018;28;20051;-87
2022/03/03 05:16:33;;;;;;;68.10;26.75;;;;;;;7.64;100.00;100928.09;5093212;28;20052;-88
2022/03/03 05:19:00;;;;;;;75.75;28.63;;;;;;;7.71;100.00;100931.41;5091076;28;20044;-87
2022/03/03 05:21:27;;;;;;;73.47;27.88;;;;;;;7.66;100.00;100948.91;5093244;28;20417;-87
2022/03/03 05:23:54;;;;;;;86.93;32.13;;;;;;;7.59;100.00;100949.03;5093574;28;20052;-87
2022/03/03 05:26:21;;;;;;;69.28;27.33;;;;;;;7.53;100.00;100932.69;5085095;28;20054;-87
2022/03/03 05:28:48;;;;;;;70.07;29.25;;;;;;;7.61;100.00;100928.16;5092933;28;20050;-86
2022/03/03 05:31:15;;;;;;;77.45;27.45;;;;;;;7.63;100.00;100884.66;5091919;28;20058;-86
2022/03/03 05:33:43;;;;;;;67.75;27.77;;;;;;;7.94;100.00;100928.28;5092435;28;20051;-88
2022/03/03 05:36:11;;;;;;;69.35;28.58;;;;;;;8.18;100.00;100938.13;5095152;28;20044;-87
2022/03/03 05:38:38;;;;;;;91.88;30.73;;;;;;;8.10;100.00;100934.00;5092687;28;20070;-87
2022/03/03 05:41:05;;;;;;;71.97;28.67;;;;;;;8.03;100.00;100940.25;5091615;28;20393;-88
2022/03/03 05:43:33;;;;;;;104.13;33.22;;;;;;;7.79;100.00;100927.75;5094038;28;20448;-88
2022/03/03 05:46:01;;;;;;;84.65;30.33;;;;;;;8.02;100.00;100942.00;5092665;28;20508;-88
2022/03/03 05:48:29;;;;;;;85.70;32.92;;;;;;;7.92;100.00;100936.13;5088258;28;20044;-88
2022/03/03 05:50:56;;;;;;;94.82;32.88;;;;;;;7.93;100.00;100924.84;5091737;28;20048;-89
2022/03/03 05:53:24;;;;;;;78.05;29.35;;;;;;;8.13;100.00;100932.16;5092783;28;20059;-89
2022/03/03 05:55:54;;;;;;;83.75;30.90;;;;;;;7.99;100.00;100927.28;5109574;28;20474;-89
2022/03/03 05:58:28;;;;;;;81.57;33.88;;;;;;;7.64;100.00;100924.63;5093645;28;20036;-88
2022/03/03 06:00:57;;;;;;;91.93;33.65;;;;;;;7.91;100.00;100907.50;5091641;28;20505;-88
2022/03/03 06:03:29;;;;;;;71.57;32.47;;;;;;;8.03;100.00;100878.50;5091248;28;20121;-88
2022/03/03 06:06:08;;;;;;;84.50;30.35;;;;;;;7.86;100.00;100917.16;5091876;28;20044;-88
2022/03/03 06:08:50;;;;;;;89.72;30.77;;;;;;;8.03;100.00;100937.63;5082928;28;20400;-88
2022/03/03 06:11:20;;;;;;;72.10;31.73;;;;;;;8.18;100.00;100898.16;5092279;28;20056;-88
2022/03/03 06:13:48;;;;;;;70.38;31.15;;;;;;;8.18;100.00;100903.38;5091393;28;20199;-88
2022/03/03 06:16:19;;;;;;;82.20;34.95;;;;;;;8.12;100.00;100930.44;5093846;28;20139;-88
2022/03/03 06:18:48;;;;;;;82.70;33.08;;;;;;;7.99;100.00;100918.59;5089439;28;20516;-88
2022/03/03 06:21:16;;;;;;;80.90;31.27;;;;;;;8.12;100.00;100893.94;5092780;28;20123;-88
2022/03/03 06:23:44;;;;;;;87.78;34.65;;;;;;;7.88;100.00;100865.84;5092850;28;20083;-88
2022/03/03 06:26:13;;;;;;;87.13;33.58;;;;;;;7.73;100.00;100900.97;5089904;28;20044;-89
2022/03/03 06:28:40;;;;;;;77.35;31.10;;;;;;;8.44;100.00;100922.75;5092744;28;20402;-88
2022/03/03 06:31:07;;;;;;;81.93;33.05;;;;;;;8.19;100.00;100920.72;5091316;28;20044;-89
2022/03/03 06:33:35;;;;;;;88.95;35.85;;;;;;;7.71;100.00;100934.88;5093319;28;20044;-89
2022/03/03 06:36:03;;;;;;;83.72;35.25;;;;;;;8.05;100.00;100899.34;5092600;28;20074;-88
2022/03/03 06:38:30;;;;;;;88.20;33.35;;;;;;;7.99;100.00;100903.81;5091167;28;20059;-88
2022/03/03 06:41:05;;;;;;;78.72;32.53;;;;;;;7.86;100.00;100884.16;5092136;28;20397;-88
2022/03/03 06:43:32;;;;;;;85.05;34.40;;;;;;;8.25;100.00;100923.19;5088064;28;20462;-90
2022/03/03 06:45:59;;;;;;;81.72;33.72;;;;;;;8.28;100.00;100915.25;5092443;28;20047;-90
2022/03/03 06:48:26;;;;;;;96.55;35.75;;;;;;;7.82;100.00;100871.22;5091879;28;20044;-90
2022/03/03 06:50:55;;;;;;;93.10;34.55;;;;;;;7.86;100.00;100870.25;5090247;28;20051;-89
2022/03/03 06:53:28;;;;;;;100.15;36.85;;;;;;;8.02;100.00;100909.84;5090634;28;20522;-89
2022/03/03 06:56:06;;;;;;;90.70;35.15;;;;;;;7.74;100.00;100861.84;5088903;28;20139;-89
2022/03/03 06:58:35;;;;;;;76.75;33.30;;;;;;;8.43;100.00;100919.28;5089995;28;20085;-88
2022/03/03 07:01:07;;;;;;;78.40;33.45;;;;;;;8.02;100.00;100888.97;5091317;28;20052;-88
2022/03/03 07:03:36;;;;;;;96.10;38.65;;;;;;;7.96;100.00;100910.84;5090344;28;20048;-89
2022/03/03 07:06:04;;;;;;;105.22;40.65;;;;;;;7.87;100.00;100906.72;5090587;28;20054;-88
2022/03/03 07:08:34;;;;;;;102.18;38.67;;;;;;;8.12;100.00;100900.91;5084349;28;20044;-87
2022/03/03 07:11:01;;;;;;;94.82;39.10;;;;;;;8.07;100.00;100923.63;5108033;28;20059;-88
2022/03/03 07:13:28;;;;;;;87.07;34.30;;;;;;;7.93;100.00;100872.69;5089103;28;20052;-88
2022/03/03 07:16:20;;;;;;;102.90;37.03;;;;;;;8.07;100.00;100898.41;5106785;28;20413;-88
2022/03/03 07:18:51;;;;;;;85.50;38.30;;;;;;;7.97;100.00;100905.59;5091037;28;20089;-88
2022/03/03 07:21:31;;;;;;;86.35;36.92;;;;;;;8.11;100.00;100917.44;5090951;28;20059;-89
2022/03/03 07:24:12;;;;;;;93.82;38.53;;;;;;;8.07;100.00;100902.75;5087303;28;20051;-87
2022/03/03 07:26:41;;;;;;;96.68;36.65;;;;;;;8.42;100.00;100901.91;5087146;28;20048;-89
2022/03/03 07:29:10;;;;;;;104.07;36.88;;;;;;;8.01;100.00;100924.63;5091253;28;20127;-88
2022/03/03 07:31:56;;;;;;;95.85;39.30;;;;;;;8.29;100.00;100914.38;5090373;28;20048;-88
2022/03/03 07:34:28;;;;;;;99.32;41.30;;;;;;;8.24;100.00;100912.78;5090761;28;20093;-88
2022/03/03 07:36:57;;;;;;;109.90;40.58;;;;;;;8.21;100.00;100918.94;5091062;28;20044;-88
2022/03/03 07:39:31;;;;;;;93.93;36.75;;;;;;;8.68;100.00;100921.25;5087554;28;20036;-88
2022/03/03 07:41:59;;;;;;;89.07;36.80;;;;;;;8.32;100.00;100922.13;5090810;28;20405;-87
2022/03/03 07:44:26;;;;;;;97.65;38.45;;;;;;;8.28;100.00;100917.03;5090640;28;20489;-88
2022/03/03 07:46:54;;;;;;;97.50;38.78;;;;;;;8.13;100.00;100928.72;5090186;28;20044;-89
2022/03/03 07:49:21;;;;;;;110.85;40.88;;;;;;;7.72;100.00;100914.88;5088816;28;20044;-88
2022/03/03 07:51:49;;;;;;;90.97;34.75;;;;;;;8.38;100.00;100902.84;5090164;28;20477;-87
2022/03/03 07:54:16;;;;;;;107.93;39.63;;;;;;;8.20;100.00;100924.16;5089808;28;20122;-88
2022/03/03 07:56:48;;;;;;;96.70;42.25;;;;;;;8.12;100.00;100922.63;5089916;28;20151;-88
2022/03/03 07:59:18;;;;;;;94.35;38.80;;;;;;;8.36;100.00;100915.09;5079619;28;20047;-89
2022/03/03 08:01:46;;;;;;;108.72;42.15;;;;;;;7.91;100.00;100936.16;5089851;28;20055;-89
2022/03/03 08:04:15;;;;;;;111.38;41.22;;;;;;;8.14;100.00;100905.19;5086060;28;20079;-88
2022/03/03 08:06:44;;;;;;;107.47;41.42;;;;;;;8.21;100.00;100924.13;5091032;28;20048;-88
2022/03/03 08:09:13;;;;;;;103.55;39.35;;;;;;;8.17;100.00;100912.06;5090941;28;20052;-88
2022/03/03 08:11:40;;;;;;;105.70;40.55;;;;;;;8.15;100.00;100906.91;5089663;28;20052;-88
2022/03/03 08:14:08;;;;;;;106.53;40.13;;;;;;;8.47;100.00;100902.66;5090435;28;20044;-88
2022/03/03 08:16:36;;;;;;;110.80;40.38;;;;;;;7.92;100.00;100927.47;5090961;28;20048;-88
2022/03/03 08:19:02;;;;;;;111.45;42.53;;;;;;;8.19;100.00;100941.59;5091654;28;20059;-88
2022/03/03 08:21:31;;;;;;;85.78;35.88;;;;;;;8.36;100.00;100930.75;5089371;28;20098;-88
2022/03/03 08:24:02;;;;;;;152.15;44.88;;;;;;;8.08;100.00;100934.03;5107603;28;20054;-89
2022/03/03 08:26:30;;;;;;;106.13;38.97;;;;;;;8.49;100.00;100916.50;5107836;28;20083;-88
2022/03/03 08:28:56;;;;;;;115.90;39.53;;;;;;;7.94;100.00;100910.03;5107991;28;20048;-89
2022/03/03 08:31:37;;;;;;;97.13;38.83;;;;;;;8.46;100.00;100932.22;5083374;28;20553;-88
2022/03/03 08:34:14;;;;;;;138.05;45.85;;;;;;;8.47;100.00;100920.91;5111250;28;20044;-93
2022/03/03 08:36:50;;;;;;;109.65;41.20;;;;;;;8.10;100.00;100871.41;5095910;28;20052;-87
2022/03/03 08:39:19;;;;;;;107.00;41.30;;;;;;;8.13;100.00;100944.34;5094577;28;20044;-87
2022/03/03 08:41:46;;;;;;;100.95;39.47;;;;;;;8.33;100.00;100915.16;5094298;28;20054;-87
2022/03/03 08:44:34;;;;;;;105.68;37.85;;;;;;;8.66;100.00;100920.44;5095294;28;20052;-88
2022/03/03 08:47:03;;;;;;;104.55;37.90;;;;;;;8.47;100.00;100915.69;5082907;28;20086;-87
2022/03/03 08:49:36;;;;;;;116.43;41.75;;;;;;;8.23;100.00;100927.56;5091417;28;20044;-87
2022/03/03 08:52:04;;;;;;;91.78;36.92;;;;;;;8.36;100.00;100904.66;5082792;28;20056;-87
2022/03/03 08:54:31;;;;;;;98.30;38.53;;;;;;;8.40;100.00;100914.09;5092621;28;20074;-88
2022/03/03 08:56:58;;;;;;;110.18;41.42;;;;;;;8.36;100.00;100913.31;5093182;28;20102;-88
2022/03/03 08:59:25;;;;;;;102.43;42.90;;;;;;;8.22;100.00;100911.97;5082591;28;20043;-92
2022/03/03 09:01:53;;;;;;;117.00;42.63;;;;;;;8.24;100.00;100882.34;5111926;28;20048;-88
2022/03/03 09:04:21;;;;;;;109.65;42.45;;;;;;;8.25;100.00;100901.44;5075757;28;20045;-92
2022/03/03 09:06:47;;;;;;;96.20;39.45;;;;;;;8.46;100.00;100939.22;5079515;28;20074;-92
2022/03/03 09:09:14;;;;;;;84.68;36.13;;;;;;;8.37;100.00;100906.34;5095982;28;20402;-92
2022/03/03 09:11:41;;;;;;;103.70;41.50;;;;;;;7.85;100.00;100878.97;5094022;28;20048;-92
2022/03/03 09:14:09;;;;;;;114.05;45.08;;;;;;;7.92;100.00;100876.16;5112328;28;20097;-92
2022/03/03 09:16:36;;;;;;;99.50;39.35;;;;;;;7.80;100.00;100855.63;5095301;28;20070;-92
2022/03/03 09:19:03;;;;;;;93.95;38.63;;;;;;;8.19;100.00;100907.69;5095913;28;20062;-90
2022/03/03 09:21:30;;;;;;;98.10;37.72;;;;;;;8.39;100.00;100896.72;5091651;28;20052;-92
2022/03/03 09:23:56;;;;;;;99.53;37.25;;;;;;;8.21;100.00;100887.63;5096540;28;20062;-93
2022/03/03 09:26:23;;;;;;;101.57;37.10;;;;;;;8.29;100.00;100882.22;5096742;28;20139;-91
2022/03/03 09:28:50;;;;;;;105.93;39.25;;;;;;;7.70;100.00;100859.31;5095137;28;20082;-92
2022/03/03 09:31:17;;;;;;;88.45;35.55;;;;;;;7.95;100.00;100851.75;5091694;28;20050;-91
2022/03/03 09:33:43;;;;;;;83.28;33.42;;;;;;;8.54;100.00;100908.56;5095280;28;20413;-91
2022/03/03 09:36:10;;;;;;;97.90;38.47;;;;;;;8.13;100.00;100892.19;5094940;28;20134;-91
2022/03/03 09:38:37;;;;;;;94.75;36.03;;;;;;;8.40;100.00;100895.84;5093858;28;20085;-90
2022/03/03 09:41:09;;;;;;;100.13;37.65;;;;;;;8.22;100.00;100901.53;5092831;28;20044;-91
2022/03/03 09:43:35;;;;;;;101.32;38.67;;;;;;;8.68;100.00;100918.66;5093706;28;20055;-90
2022/03/03 09:46:02;;;;;;;102.78;38.78;;;;;;;8.17;100.00;100922.50;5093559;28;20056;-90
2022/03/03 09:48:29;;;;;;;96.10;35.65;;;;;;;8.46;100.00;100906.13;5093972;28;20486;-91
2022/03/03 09:50:56;;;;;;;128.23;43.55;;;;;;;8.20;100.00;100914.63;5092071;28;20046;-91
2022/03/03 09:53:23;;;;;;;106.28;37.33;;;;;;;8.23;100.00;100882.38;5093590;28;20061;-91
2022/03/03 09:55:49;;;;;;;104.45;39.08;;;;;;;8.35;100.00;100906.38;5094022;28;20058;-91
2022/03/03 09:58:16;;;;;;;97.07;39.10;;;;;;;8.65;100.00;100914.34;5093335;28;20058;-91
2022/03/03 10:00:44;;;;;;;101.80;39.13;;;;;;;8.26;100.00;100897.94;5091293;28;20054;-90
2022/03/03 10:03:14;;;;;;;107.70;39.60;;;;;;;8.44;100.00;100913.16;5094149;28;20048;-91
2022/03/03 10:05:53;;;;;;;91.32;39.30;;;;;;;8.93;100.00;100927.50;5094294;28;20074;-91
2022/03/03 10:08:22;;;;;;;88.43;37.67;;;;;;;8.80;100.00;100931.38;5094671;28;20136;-90
2022/03/03 10:10:52;;;;;;;96.88;40.88;;;;;;;8.52;100.00;100905.16;5091853;28;20040;-91
2022/03/03 10:13:19;;;;;;;108.07;44.00;;;;;;;8.40;100.00;100915.88;5093203;28;20062;-91
2022/03/03 10:15:59;;;;;;;102.05;40.47;;;;;;;8.53;100.00;100919.88;5093094;28;20051;-90
2022/03/03 10:18:27;;;;;;;108.78;40.30;;;;;;;8.33;100.00;100897.75;5093715;28;20051;-89
2022/03/03 10:20:55;;;;;;;102.10;42.58;;;;;;;8.51;100.00;100903.41;5087644;28;20044;-91
2022/03/03 10:23:29;;;;;;;81.25;35.72;;;;;;;8.92;100.00;100917.09;5094144;28;20740;-90
2022/03/03 10:25:58;;;;;;;100.38;42.67;;;;;;;8.81;100.00;100938.28;5093157;28;20143;-91
2022/03/03 10:28:27;;;;;;;117.82;48.08;;;;;;;8.62;100.00;100921.41;5092837;28;20054;-90
2022/03/03 10:31:00;;;;;;;105.65;43.63;;;;;;;8.78;100.00;100948.81;5092431;28;20044;-91
2022/03/03 10:33:33;;;;;;;111.30;45.95;;;;;;;8.15;100.00;100943.41;5093495;28;20048;-91
2022/03/03 10:36:01;;;;;;;112.82;42.75;;;;;;;8.30;100.00;100942.16;5093014;28;20054;-91
2022/03/03 10:38:28;;;;;;;105.68;45.03;;;;;;;8.23;100.00;100938.00;5094590;28;20478;-90
2022/03/03 10:40:57;;;;;;;97.93;47.13;;;;;;;8.42;100.00;100917.56;5091261;28;20052;-90
2022/03/03 10:43:23;;;;;;;109.28;46.72;;;;;;;8.10;100.00;100932.22;5092904;28;20056;-90
2022/03/03 10:45:58;;;;;;;107.45;46.10;;;;;;;8.17;100.00;100972.06;5109715;28;20048;-90
2022/03/03 10:48:30;;;;;;;102.18;42.40;;;;;;;8.44;100.00;100956.66;5092623;28;20044;-90
2022/03/03 10:51:00;;;;;;;101.22;43.72;;;;;;;8.29;100.00;100929.19;5088067;28;20044;-91
2022/03/03 10:53:27;;;;;;;101.25;44.22;;;;;;;8.53;100.00;100940.75;5091362;28;20058;-90
2022/03/03 10:56:00;;;;;;;112.85;44.50;;;;;;;8.73;100.00;100954.16;5093727;28;20138;-91
2022/03/03 10:58:48;;;;;;;93.60;39.22;;;;;;;8.80;100.00;100952.25;5093280;28;20044;-91
2022/03/03 11:01:19;;;;;;;121.25;47.20;;;;;;;8.47;100.00;100960.06;5085015;28;20048;-89
2022/03/03 11:03:49;;;;;;;109.70;47.92;;;;;;;8.12;100.00;100953.91;5086036;28;20048;-91
2022/03/03 11:06:28;;;;;;;112.40;44.70;;;;;;;8.73;100.00;100964.59;5091622;28;20135;-91
2022/03/03 11:08:57;;;;;;;101.70;45.00;;;;;;;8.38;100.00;100968.09;5088687;28;20129;-91
2022/03/03 11:11:25;;;;;;;123.28;48.35;;;;;;;8.46;100.00;100950.50;5084956;28;20070;-90
2022/03/03 11:13:53;;;;;;;93.90;45.95;;;;;;;8.37;100.00;100950.69;5091671;28;20131;-90